Time;durP1;ratioP1;P1;durP2;ratioP2;P2;SDS_P1;SDS_P2;PMS_P1;PMS_P2;Temp;Humidity;BMP_temperature;BMP_pressure;BME280_temperature;BME280_humidity;BME280_pressure;Samples;Min_cycle;Max_cycle;Signal;HPM_P1;HPM_P2
2023/10/25 00:00:12;;;;;;;2.42;1.80;;;10.60;99.90;;;;;;5039526;28;20063;-43
2023/10/25 00:02:37;;;;;;;2.58;1.95;;;10.60;99.90;;;;;;5041847;28;20052;-43
2023/10/25 00:05:03;;;;;;;2.67;2.15;;;10.60;99.90;;;;;;5040474;28;20036;-43
2023/10/25 00:07:28;;;;;;;2.28;1.92;;;10.60;99.90;;;;;;5040292;28;20053;-43
2023/10/25 00:09:54;;;;;;;2.67;2.00;;;10.60;99.90;;;;;;5041790;28;20051;-43
2023/10/25 00:12:22;;;;;;;4.40;2.20;;;10.50;99.90;;;;;;5040850;28;20029;-43
2023/10/25 00:14:48;;;;;;;2.85;2.50;;;10.60;99.90;;;;;;5040537;28;20020;-42
2023/10/25 00:17:13;;;;;;;5.53;2.03;;;10.60;99.90;;;;;;5040690;28;20033;-42
2023/10/25 00:19:39;;;;;;;3.22;2.30;;;10.50;99.90;;;;;;5040397;28;20024;-43
2023/10/25 00:22:04;;;;;;;2.60;1.80;;;10.50;99.90;;;;;;5039494;28;20110;-43
2023/10/25 00:24:30;;;;;;;3.38;2.08;;;10.50;99.90;;;;;;5040831;28;20106;-42
2023/10/25 00:26:55;;;;;;;2.40;2.10;;;10.50;99.90;;;;;;5040872;28;20025;-44
2023/10/25 00:29:21;;;;;;;3.50;2.17;;;10.50;99.90;;;;;;5039599;28;20230;-44
2023/10/25 00:31:47;;;;;;;2.67;2.20;;;10.40;99.90;;;;;;5040955;28;20029;-42
2023/10/25 00:34:12;;;;;;;4.55;2.15;;;10.50;99.90;;;;;;5040504;28;20510;-43
2023/10/25 00:36:38;;;;;;;3.05;2.47;;;10.40;99.90;;;;;;5040132;28;20104;-42
2023/10/25 00:39:03;;;;;;;2.83;2.25;;;10.40;99.90;;;;;;5040370;28;20468;-42
2023/10/25 00:41:29;;;;;;;5.53;2.55;;;10.40;99.90;;;;;;5040796;28;20033;-43
2023/10/25 00:43:55;;;;;;;4.20;2.60;;;10.40;99.90;;;;;;5039395;28;20021;-43
2023/10/25 00:46:24;;;;;;;4.68;2.50;;;10.40;99.90;;;;;;5039832;28;20029;-43
2023/10/25 00:48:56;;;;;;;3.15;2.30;;;10.30;99.90;;;;;;5041002;28;20760;-44
2023/10/25 00:51:23;;;;;;;2.30;2.10;;;10.40;99.90;;;;;;5039005;28;20033;-44
2023/10/25 00:53:56;;;;;;;2.45;2.20;;;10.30;99.90;;;;;;5039786;28;20029;-43
2023/10/25 00:56:29;;;;;;;3.08;2.50;;;10.30;99.90;;;;;;5040251;28;20106;-43
2023/10/25 00:58:56;;;;;;;2.47;2.13;;;10.30;99.90;;;;;;5040478;28;20017;-44
2023/10/25 01:01:23;;;;;;;2.58;2.13;;;10.20;99.90;;;;;;5039328;28;20072;-44
2023/10/25 01:03:49;;;;;;;4.43;2.10;;;10.20;99.90;;;;;;5039765;28;20376;-43
2023/10/25 01:06:24;;;;;;;3.30;2.10;;;10.20;99.90;;;;;;5039774;28;20056;-43
2023/10/25 01:08:51;;;;;;;2.42;2.20;;;10.20;99.90;;;;;;5040207;28;20028;-44
2023/10/25 01:11:16;;;;;;;3.53;2.67;;;10.20;99.90;;;;;;5039680;28;20025;-44
2023/10/25 01:13:42;;;;;;;2.50;2.05;;;10.20;99.90;;;;;;5040338;28;20523;-43
2023/10/25 01:16:07;;;;;;;3.10;2.08;;;10.10;99.90;;;;;;5039704;28;20052;-41
2023/10/25 01:18:33;;;;;;;4.30;2.50;;;10.10;99.90;;;;;;5039779;28;20029;-43
2023/10/25 01:20:59;;;;;;;3.92;2.10;;;10.10;99.90;;;;;;5039861;28;20047;-44
2023/10/25 01:23:24;;;;;;;3.42;2.80;;;10.10;99.90;;;;;;5040414;28;20472;-43
2023/10/25 01:25:50;;;;;;;3.58;1.80;;;10.10;99.90;;;;;;5039193;28;20032;-43
2023/10/25 01:28:15;;;;;;;2.17;1.98;;;10.10;99.90;;;;;;5040014;28;20024;-43
2023/10/25 01:30:41;;;;;;;2.58;2.08;;;10.10;99.90;;;;;;5040802;28;20376;-44
2023/10/25 01:33:07;;;;;;;3.60;2.17;;;10.10;99.90;;;;;;5038773;28;20521;-44
2023/10/25 01:35:34;;;;;;;2.53;2.08;;;10.10;99.90;;;;;;5040646;28;20037;-44
2023/10/25 01:38:00;;;;;;;2.85;1.95;;;10.10;99.90;;;;;;5040033;28;20135;-43
2023/10/25 01:40:26;;;;;;;2.78;1.95;;;10.00;99.90;;;;;;5039557;28;20783;-43
2023/10/25 01:42:53;;;;;;;2.33;2.13;;;10.00;99.90;;;;;;5040455;28;20758;-42
2023/10/25 01:45:27;;;;;;;2.85;1.95;;;10.00;99.90;;;;;;5039753;28;20066;-44
2023/10/25 01:47:52;;;;;;;2.80;2.08;;;10.10;99.90;;;;;;5039771;28;20048;-44
2023/10/25 01:50:19;;;;;;;3.67;2.30;;;10.00;99.90;;;;;;5040461;28;20104;-44
2023/10/25 01:52:44;;;;;;;4.60;2.22;;;10.00;99.90;;;;;;5039665;28;20119;-44
2023/10/25 01:55:10;;;;;;;2.40;2.20;;;10.00;99.90;;;;;;5039775;28;20583;-43
2023/10/25 01:57:36;;;;;;;2.45;2.13;;;10.00;99.90;;;;;;5039497;28;20021;-44
2023/10/25 02:00:03;;;;;;;3.35;2.22;;;10.00;99.90;;;;;;5038672;28;20044;-44
2023/10/25 02:02:28;;;;;;;2.65;2.25;;;10.00;99.90;;;;;;5039915;28;20035;-44
2023/10/25 02:04:54;;;;;;;3.22;2.10;;;10.00;99.90;;;;;;5040685;28;20475;-44
2023/10/25 02:07:19;;;;;;;4.78;2.55;;;9.90;99.90;;;;;;5042086;28;20037;-44
2023/10/25 02:09:48;;;;;;;4.78;2.30;;;9.90;99.90;;;;;;5043118;28;20391;-42
2023/10/25 02:12:13;;;;;;;5.43;2.47;;;9.90;99.90;;;;;;5043110;28;20057;-42
2023/10/25 02:14:39;;;;;;;3.95;3.28;;;9.90;99.90;;;;;;5042452;28;20155;-43
2023/10/25 02:17:05;;;;;;;6.18;3.95;;;9.80;99.90;;;;;;5042913;28;20421;-43
2023/10/25 02:19:31;;;;;;;6.75;4.95;;;9.70;99.90;;;;;;5043240;28;20025;-43
2023/10/25 02:21:56;;;;;;;7.53;5.32;;;9.70;99.90;;;;;;5042288;28;20751;-44
2023/10/25 02:24:22;;;;;;;8.75;6.07;;;9.70;99.90;;;;;;5042685;28;20021;-44
2023/10/25 02:26:49;;;;;;;6.97;4.60;;;9.70;99.90;;;;;;5043833;28;20891;-43
2023/10/25 02:29:15;;;;;;;7.20;4.78;;;9.70;99.90;;;;;;5042060;28;20032;-43
2023/10/25 02:31:40;;;;;;;6.88;4.55;;;9.60;99.90;;;;;;5043173;28;20021;-44
2023/10/25 02:34:06;;;;;;;9.45;4.32;;;9.60;99.90;;;;;;5042079;28;20144;-43
2023/10/25 02:36:32;;;;;;;5.20;4.00;;;9.60;99.90;;;;;;5042443;28;20141;-43
2023/10/25 02:38:57;;;;;;;5.63;3.75;;;9.60;99.90;;;;;;5043082;28;20129;-44
2023/10/25 02:41:23;;;;;;;3.30;3.00;;;9.60;99.90;;;;;;5042500;28;20692;-42
2023/10/25 02:43:53;;;;;;;3.08;2.78;;;9.60;99.90;;;;;;5042150;28;20547;-43
2023/10/25 02:46:19;;;;;;;5.18;3.15;;;9.60;99.90;;;;;;5042306;28;20025;-43
2023/10/25 02:48:45;;;;;;;4.30;2.95;;;9.60;99.90;;;;;;5042918;28;20025;-43
2023/10/25 02:51:10;;;;;;;4.05;2.83;;;9.60;99.90;;;;;;5041476;28;20557;-43
2023/10/25 02:53:36;;;;;;;4.05;3.00;;;9.50;99.90;;;;;;5042586;28;20029;-43
2023/10/25 02:56:07;;;;;;;3.25;2.72;;;9.50;99.90;;;;;;5041175;28;20037;-43
2023/10/25 02:58:33;;;;;;;3.72;2.85;;;9.50;99.90;;;;;;5042744;28;20626;-43
2023/10/25 03:00:58;;;;;;;3.75;2.75;;;9.50;99.90;;;;;;5041983;28;20755;-43
2023/10/25 03:03:28;;;;;;;4.63;2.67;;;9.40;99.90;;;;;;5040813;28;20021;-43
2023/10/25 03:05:54;;;;;;;3.97;2.72;;;9.40;99.90;;;;;;5042776;28;20024;-43
2023/10/25 03:08:23;;;;;;;3.58;2.53;;;9.40;99.90;;;;;;5042231;28;20027;-42
2023/10/25 03:10:49;;;;;;;5.43;2.50;;;9.40;99.90;;;;;;5041490;28;21284;-42
2023/10/25 03:13:15;;;;;;;4.53;2.47;;;9.30;99.90;;;;;;5041770;28;20025;-43
2023/10/25 03:15:41;;;;;;;4.03;2.67;;;9.30;99.90;;;;;;5041758;28;20036;-43
2023/10/25 03:18:07;;;;;;;2.58;2.38;;;9.30;99.90;;;;;;5041165;28;20021;-43
2023/10/25 03:20:33;;;;;;;7.03;2.42;;;9.30;99.90;;;;;;5041255;28;20542;-43
2023/10/25 03:22:59;;;;;;;3.22;2.30;;;9.30;99.90;;;;;;5041796;28;20425;-45
2023/10/25 03:25:25;;;;;;;4.40;2.50;;;9.30;99.90;;;;;;5041336;28;20103;-43
2023/10/25 03:27:51;;;;;;;2.55;2.00;;;9.30;99.90;;;;;;5042014;28;20036;-43
2023/10/25 03:30:17;;;;;;;2.75;1.95;;;9.30;99.90;;;;;;5041171;28;20175;-43
2023/10/25 03:32:46;;;;;;;2.85;2.20;;;9.30;99.90;;;;;;5040807;28;22347;-43
2023/10/25 03:35:12;;;;;;;2.47;1.90;;;9.20;99.90;;;;;;5042002;28;20025;-43
2023/10/25 03:37:39;;;;;;;3.47;2.55;;;9.30;99.90;;;;;;5041273;28;20154;-43
2023/10/25 03:40:09;;;;;;;5.13;2.10;;;9.30;99.90;;;;;;5041372;28;20043;-43
2023/10/25 03:42:35;;;;;;;4.25;2.30;;;9.30;99.90;;;;;;5041798;28;20684;-43
2023/10/25 03:45:01;;;;;;;3.33;2.25;;;9.30;99.90;;;;;;5042243;28;20028;-42
2023/10/25 03:47:27;;;;;;;3.72;2.55;;;9.30;99.90;;;;;;5040641;28;20029;-43
2023/10/25 03:49:56;;;;;;;3.20;2.35;;;9.30;99.90;;;;;;5041126;28;20582;-44
2023/10/25 03:52:28;;;;;;;4.18;2.70;;;9.30;99.90;;;;;;5039994;28;20029;-43
2023/10/25 03:54:54;;;;;;;3.67;2.25;;;9.40;99.90;;;;;;5040817;28;20559;-43
2023/10/25 03:57:19;;;;;;;3.75;2.58;;;9.30;99.90;;;;;;5040826;28;20031;-43
2023/10/25 03:59:45;;;;;;;4.03;2.78;;;9.30;99.90;;;;;;5040406;28;20029;-43
2023/10/25 04:02:13;;;;;;;3.38;2.33;;;9.30;99.90;;;;;;5041700;28;20114;-44
2023/10/25 04:04:39;;;;;;;3.47;2.50;;;9.30;99.90;;;;;;5041749;28;20107;-43
2023/10/25 04:07:04;;;;;;;4.13;2.40;;;9.30;99.90;;;;;;5039972;28;20032;-43
2023/10/25 04:09:30;;;;;;;3.78;2.78;;;9.30;99.90;;;;;;5041251;28;20029;-43
2023/10/25 04:11:55;;;;;;;5.65;3.10;;;9.30;99.90;;;;;;5041171;28;20017;-43
2023/10/25 04:14:21;;;;;;;5.45;3.15;;;9.30;99.90;;;;;;5040346;28;20658;-43
2023/10/25 04:16:49;;;;;;;6.25;3.17;;;9.30;99.90;;;;;;5041244;28;20025;-43
2023/10/25 04:19:15;;;;;;;5.80;3.53;;;9.30;99.90;;;;;;5038775;28;20025;-42
2023/10/25 04:21:41;;;;;;;4.35;3.45;;;9.20;99.90;;;;;;5039552;28;20048;-43
2023/10/25 04:24:10;;;;;;;5.60;3.60;;;9.20;99.90;;;;;;5039233;28;20024;-44
2023/10/25 04:26:35;;;;;;;4.30;3.10;;;9.20;99.90;;;;;;5040811;28;20115;-44
2023/10/25 04:29:01;;;;;;;3.88;2.95;;;9.20;99.90;;;;;;5037972;28;20020;-44
2023/10/25 04:31:26;;;;;;;4.72;3.15;;;9.20;99.90;;;;;;5040478;28;20029;-45
2023/10/25 04:33:52;;;;;;;4.15;3.42;;;9.20;99.90;;;;;;5039918;28;20048;-43
2023/10/25 04:36:20;;;;;;;4.22;2.97;;;9.20;99.90;;;;;;5038860;28;20063;-43
2023/10/25 04:38:46;;;;;;;4.32;3.05;;;9.20;99.90;;;;;;5040691;28;20402;-44
2023/10/25 04:41:12;;;;;;;4.82;2.95;;;9.20;99.90;;;;;;5040029;28;20480;-42
2023/10/25 04:43:37;;;;;;;4.18;2.90;;;9.20;99.90;;;;;;5039785;28;20051;-44
2023/10/25 04:46:03;;;;;;;6.50;4.05;;;9.20;99.90;;;;;;5039277;28;20108;-44
2023/10/25 04:48:29;;;;;;;3.35;2.95;;;9.20;99.90;;;;;;5039721;28;20036;-43
2023/10/25 04:50:55;;;;;;;4.85;2.97;;;9.20;99.90;;;;;;5039254;28;20068;-43
2023/10/25 04:53:20;;;;;;;4.00;2.78;;;9.30;99.90;;;;;;5039223;28;20032;-44
2023/10/25 04:55:46;;;;;;;3.33;2.85;;;9.30;99.90;;;;;;5038851;28;20178;-43
2023/10/25 04:58:17;;;;;;;4.93;2.90;;;9.30;99.90;;;;;;5039166;28;20029;-43
2023/10/25 05:00:42;;;;;;;4.45;2.88;;;9.30;99.90;;;;;;5039455;28;20033;-44
2023/10/25 05:03:11;;;;;;;3.10;2.80;;;9.40;99.90;;;;;;5038693;28;20483;-45
2023/10/25 05:05:40;;;;;;;4.85;3.05;;;9.40;99.90;;;;;;5038294;28;20581;-43
2023/10/25 05:08:07;;;;;;;3.60;2.90;;;9.40;99.90;;;;;;5039791;28;20021;-44
2023/10/25 05:10:33;;;;;;;3.25;2.95;;;9.40;99.90;;;;;;5038641;28;20037;-43
2023/10/25 05:12:59;;;;;;;6.75;2.88;;;9.40;99.90;;;;;;5039654;28;20025;-44
2023/10/25 05:15:27;;;;;;;3.85;2.60;;;9.50;99.90;;;;;;5039130;28;20029;-44
2023/10/25 05:17:53;;;;;;;5.32;2.67;;;9.50;99.90;;;;;;5039993;28;20036;-43
2023/10/25 05:20:19;;;;;;;4.25;3.25;;;9.50;99.90;;;;;;5039635;28;20029;-44
2023/10/25 05:22:50;;;;;;;4.75;3.03;;;9.50;99.90;;;;;;5039765;28;20031;-44
2023/10/25 05:25:17;;;;;;;3.83;2.90;;;9.50;99.90;;;;;;5038062;28;20021;-43
2023/10/25 05:27:43;;;;;;;3.30;2.85;;;9.50;99.90;;;;;;5039314;28;20053;-44
2023/10/25 05:30:10;;;;;;;3.75;2.90;;;9.50;99.90;;;;;;5038868;28;20028;-44
2023/10/25 05:32:37;;;;;;;3.55;2.90;;;9.50;99.90;;;;;;5039111;28;20110;-43
2023/10/25 05:35:05;;;;;;;3.75;2.83;;;9.50;99.90;;;;;;5038561;28;20033;-44
2023/10/25 05:37:32;;;;;;;4.88;3.35;;;9.50;99.90;;;;;;5039453;28;20405;-44
2023/10/25 05:39:58;;;;;;;5.30;3.30;;;9.50;99.90;;;;;;5041463;28;20476;-44
2023/10/25 05:42:24;;;;;;;4.03;2.75;;;9.60;99.90;;;;;;5043524;28;20048;-44
2023/10/25 05:44:53;;;;;;;4.25;3.05;;;9.60;99.90;;;;;;5043541;28;20028;-44
2023/10/25 05:47:26;;;;;;;3.53;2.75;;;9.60;99.90;;;;;;5043422;28;20111;-44
2023/10/25 05:49:52;;;;;;;4.80;3.50;;;9.60;99.90;;;;;;5043137;28;20492;-43
2023/10/25 05:52:18;;;;;;;5.85;2.85;;;9.60;99.90;;;;;;5038516;28;20050;-43
2023/10/25 05:54:44;;;;;;;3.50;2.88;;;9.60;99.90;;;;;;5044081;28;20126;-44
2023/10/25 05:57:11;;;;;;;3.38;2.78;;;9.60;99.90;;;;;;5042560;28;20032;-44
2023/10/25 05:59:37;;;;;;;3.63;2.70;;;9.70;99.90;;;;;;5042645;28;20017;-44
2023/10/25 06:02:14;;;;;;;3.75;2.58;;;9.70;99.90;;;;;;5042255;28;20697;-43
2023/10/25 06:04:42;;;;;;;4.40;2.95;;;9.70;99.90;;;;;;5042941;28;20568;-43
2023/10/25 06:07:12;;;;;;;3.88;2.90;;;9.70;99.90;;;;;;5041339;28;20029;-43
2023/10/25 06:09:38;;;;;;;5.50;2.95;;;9.80;99.90;;;;;;5022866;28;20021;-43
2023/10/25 06:12:05;;;;;;;4.43;3.00;;;9.80;99.90;;;;;;5035979;28;20036;-43
2023/10/25 06:14:31;;;;;;;2.88;2.67;;;9.80;99.90;;;;;;5041368;28;20033;-43
2023/10/25 06:16:58;;;;;;;3.65;2.85;;;9.80;99.90;;;;;;5042709;28;20025;-43
2023/10/25 06:19:23;;;;;;;3.70;2.78;;;9.80;99.90;;;;;;5041956;28;20327;-43
2023/10/25 06:21:49;;;;;;;4.03;3.08;;;9.90;99.90;;;;;;5041939;28;20877;-44
2023/10/25 06:24:14;;;;;;;4.70;2.88;;;9.90;99.90;;;;;;5042564;28;20029;-44
2023/10/25 06:26:41;;;;;;;5.22;3.15;;;9.90;99.90;;;;;;5042143;28;20029;-43
2023/10/25 06:29:08;;;;;;;3.50;3.00;;;9.90;99.90;;;;;;5040736;28;20021;-43
2023/10/25 06:31:33;;;;;;;4.78;3.10;;;9.90;99.90;;;;;;5042290;28;20096;-44
2023/10/25 06:33:59;;;;;;;6.88;3.38;;;9.90;99.90;;;;;;5042187;28;20055;-43
2023/10/25 06:36:26;;;;;;;6.28;3.25;;;9.90;99.90;;;;;;5041431;28;20029;-43
2023/10/25 06:38:51;;;;;;;5.05;3.45;;;9.90;99.90;;;;;;5038959;28;20057;-44
2023/10/25 06:41:24;;;;;;;3.53;2.80;;;9.90;99.90;;;;;;5041287;28;20163;-43
2023/10/25 06:43:50;;;;;;;4.13;3.08;;;9.90;99.90;;;;;;5042217;28;20745;-43
2023/10/25 06:46:16;;;;;;;3.90;3.50;;;9.90;99.90;;;;;;5041855;28;20037;-44
2023/10/25 06:48:45;;;;;;;5.82;3.42;;;10.00;99.90;;;;;;5041758;28;20436;-43
2023/10/25 06:51:11;;;;;;;5.50;3.65;;;10.00;99.90;;;;;;5040496;28;20051;-43
2023/10/25 06:53:40;;;;;;;5.75;3.75;;;10.00;99.90;;;;;;5041402;28;20025;-43
2023/10/25 06:56:06;;;;;;;4.18;3.47;;;10.00;99.90;;;;;;5041881;28;20029;-44
2023/10/25 06:58:34;;;;;;;7.38;3.90;;;10.00;99.90;;;;;;5042224;28;20025;-45
2023/10/25 07:01:01;;;;;;;7.60;3.70;;;10.00;99.90;;;;;;5042066;28;20128;-44
2023/10/25 07:03:35;;;;;;;3.97;3.58;;;10.00;99.90;;;;;;5042446;28;20151;-43
2023/10/25 07:06:03;;;;;;;7.13;3.88;;;10.00;99.90;;;;;;5042042;28;20844;-44
2023/10/25 07:08:30;;;;;;;4.82;3.40;;;10.00;99.90;;;;;;5042701;28;20028;-44
2023/10/25 07:10:56;;;;;;;5.03;4.05;;;10.00;99.90;;;;;;5042319;28;20360;-43
2023/10/25 07:13:26;;;;;;;4.90;3.65;;;10.10;99.90;;;;;;5041457;28;20017;-43
2023/10/25 07:15:52;;;;;;;4.63;3.58;;;10.10;99.90;;;;;;5042368;28;20431;-44
2023/10/25 07:18:17;;;;;;;6.97;3.47;;;10.10;99.90;;;;;;5041043;28;20548;-43
2023/10/25 07:20:43;;;;;;;5.35;3.50;;;10.10;99.90;;;;;;5042048;28;20589;-44
2023/10/25 07:23:09;;;;;;;4.97;3.20;;;10.10;99.90;;;;;;5041339;28;20028;-44
2023/10/25 07:25:38;;;;;;;4.03;3.28;;;10.20;99.90;;;;;;5040572;28;20024;-43
2023/10/25 07:28:05;;;;;;;5.35;3.35;;;10.20;99.90;;;;;;5041794;28;20103;-44
2023/10/25 07:30:34;;;;;;;4.50;3.63;;;10.20;99.90;;;;;;5041533;28;20203;-43
2023/10/25 07:33:00;;;;;;;6.03;3.50;;;10.30;99.90;;;;;;5041464;28;20036;-44
2023/10/25 07:35:25;;;;;;;5.50;3.80;;;10.30;99.90;;;;;;5041102;28;20550;-43
2023/10/25 07:37:51;;;;;;;3.83;3.25;;;10.30;99.90;;;;;;5041157;28;20021;-43
2023/10/25 07:40:22;;;;;;;5.45;3.30;;;10.40;99.90;;;;;;5041092;28;20671;-43
2023/10/25 07:42:51;;;;;;;5.35;3.40;;;10.50;99.90;;;;;;5022114;28;20033;-42
2023/10/25 07:45:17;;;;;;;4.78;3.35;;;10.60;99.90;;;;;;5035651;28;20017;-43
2023/10/25 07:47:42;;;;;;;5.40;3.72;;;10.60;99.90;;;;;;5041801;28;20074;-44
2023/10/25 07:50:08;;;;;;;6.35;3.60;;;10.60;99.90;;;;;;5040688;28;20095;-44
2023/10/25 07:52:37;;;;;;;5.72;4.15;;;10.70;99.90;;;;;;5040462;28;20063;-44
2023/10/25 07:55:03;;;;;;;4.90;3.67;;;10.70;99.90;;;;;;5040640;28;20443;-43
2023/10/25 07:57:30;;;;;;;5.78;4.00;;;10.70;99.90;;;;;;5041317;28;20514;-43
2023/10/25 07:59:56;;;;;;;6.15;4.00;;;10.70;99.90;;;;;;5040254;28;20817;-43
2023/10/25 08:02:24;;;;;;;6.78;3.90;;;10.70;99.90;;;;;;5040121;28;20029;-43
2023/10/25 08:04:50;;;;;;;7.50;4.10;;;10.80;99.90;;;;;;5040768;28;20407;-43
2023/10/25 08:07:15;;;;;;;7.43;3.97;;;10.80;99.90;;;;;;5040222;28;20028;-42
2023/10/25 08:09:42;;;;;;;4.38;3.60;;;10.80;99.90;;;;;;5041783;28;20037;-44
2023/10/25 08:12:08;;;;;;;5.57;3.92;;;10.80;99.90;;;;;;5040754;28;20029;-43
2023/10/25 08:14:34;;;;;;;6.38;4.60;;;10.80;99.90;;;;;;5040003;28;20530;-43
2023/10/25 08:16:59;;;;;;;6.28;4.10;;;10.80;99.90;;;;;;5040056;28;20021;-44
2023/10/25 08:19:25;;;;;;;5.63;3.50;;;10.80;99.90;;;;;;5041062;28;20052;-43
2023/10/25 08:21:51;;;;;;;5.43;3.72;;;10.90;99.90;;;;;;5040116;28;20586;-43
2023/10/25 08:24:16;;;;;;;4.25;3.35;;;10.80;99.90;;;;;;5040611;28;20111;-44
2023/10/25 08:26:42;;;;;;;8.02;4.13;;;10.80;99.90;;;;;;5039486;28;20044;-43
2023/10/25 08:29:08;;;;;;;6.40;3.95;;;10.90;99.90;;;;;;5040693;28;20025;-43
2023/10/25 08:31:41;;;;;;;5.30;3.83;;;10.90;99.90;;;;;;5041254;28;20021;-42
2023/10/25 08:34:08;;;;;;;4.65;3.25;;;10.90;99.90;;;;;;5039964;28;20064;-44
2023/10/25 08:36:35;;;;;;;5.30;3.58;;;10.90;99.90;;;;;;5041089;28;20198;-44
2023/10/25 08:39:02;;;;;;;3.97;3.20;;;10.90;99.90;;;;;;5040741;28;20029;-44
2023/10/25 08:41:28;;;;;;;4.57;3.42;;;10.90;99.90;;;;;;5040220;28;20032;-44
2023/10/25 08:43:54;;;;;;;3.47;3.17;;;11.00;99.90;;;;;;5041298;28;20024;-43
2023/10/25 08:46:22;;;;;;;5.40;3.22;;;11.00;99.90;;;;;;5040706;28;20028;-43
2023/10/25 08:48:50;;;;;;;6.13;3.50;;;11.00;99.90;;;;;;5039921;28;20104;-44
2023/10/25 08:51:16;;;;;;;3.70;3.33;;;11.10;99.90;;;;;;5039275;28;20365;-44
2023/10/25 08:53:42;;;;;;;3.90;3.53;;;11.10;99.90;;;;;;5039939;28;20028;-44
2023/10/25 08:56:08;;;;;;;4.93;3.42;;;11.20;99.90;;;;;;5039387;28;20064;-44
2023/10/25 08:58:33;;;;;;;6.05;3.22;;;11.20;99.90;;;;;;5040843;28;20570;-44
2023/10/25 09:00:59;;;;;;;5.75;3.63;;;11.30;99.90;;;;;;5041090;28;20037;-44
2023/10/25 09:03:41;;;;;;;5.43;3.40;;;11.30;99.90;;;;;;5038379;28;20741;-43
2023/10/25 09:06:08;;;;;;;5.23;3.70;;;11.40;99.90;;;;;;5040005;28;20075;-43
2023/10/25 09:08:34;;;;;;;6.05;3.35;;;11.40;99.90;;;;;;5040331;28;20120;-44
2023/10/25 09:11:08;;;;;;;4.57;3.67;;;11.30;99.90;;;;;;5039835;28;20029;-46
2023/10/25 09:13:35;;;;;;;3.45;3.03;;;11.30;99.90;;;;;;5039904;28;20036;-44
2023/10/25 09:16:12;;;;;;;3.38;2.97;;;11.40;99.90;;;;;;5043452;28;20119;-44
2023/10/25 09:18:39;;;;;;;5.68;3.83;;;11.30;99.90;;;;;;5043600;28;20025;-43
2023/10/25 09:21:06;;;;;;;4.05;2.92;;;11.30;99.90;;;;;;5043724;28;20514;-44
2023/10/25 09:23:33;;;;;;;4.97;3.60;;;11.30;99.90;;;;;;5043591;28;20025;-43
2023/10/25 09:26:00;;;;;;;5.43;3.55;;;11.30;99.90;;;;;;5044664;28;20811;-43
2023/10/25 09:28:27;;;;;;;6.57;3.90;;;11.30;99.90;;;;;;5044167;28;20127;-42
2023/10/25 09:30:58;;;;;;;5.70;3.63;;;11.30;99.90;;;;;;5044403;28;20032;-42
2023/10/25 09:33:24;;;;;;;5.53;3.50;;;11.40;99.90;;;;;;5043559;28;20122;-43
2023/10/25 09:35:51;;;;;;;6.55;3.60;;;11.40;99.90;;;;;;5044390;28;20033;-42
2023/10/25 09:38:17;;;;;;;7.15;3.90;;;11.40;99.90;;;;;;5042784;28;20104;-42
2023/10/25 09:40:44;;;;;;;4.28;3.78;;;11.40;99.90;;;;;;5043658;28;20479;-42
2023/10/25 09:43:20;;;;;;;4.55;3.60;;;11.40;99.90;;;;;;5043779;28;20498;-43
2023/10/25 09:45:53;;;;;;;4.00;3.05;;;11.40;99.90;;;;;;5043840;28;20140;-43
2023/10/25 09:48:21;;;;;;;;;;;11.40;99.90;;;;;;5044131;28;20052;-44
2023/10/25 09:50:56;;;;;;;6.85;3.30;;;11.40;99.90;;;;;;5043443;28;20379;-43
2023/10/25 09:53:28;;;;;;;4.70;3.30;;;11.50;99.90;;;;;;5042042;28;20102;-43
2023/10/25 09:56:00;;;;;;;4.53;3.20;;;11.50;99.90;;;;;;5033064;28;20039;-43
2023/10/25 09:58:34;;;;;;;3.30;3.00;;;11.50;99.90;;;;;;5043089;28;20115;-44
2023/10/25 10:01:00;;;;;;;5.05;2.92;;;11.50;99.90;;;;;;5043379;28;20033;-43
2023/10/25 10:03:52;;;;;;;5.05;3.42;;;11.50;99.90;;;;;;5043841;28;20024;-43
2023/10/25 10:06:20;;;;;;;4.40;3.42;;;11.60;99.90;;;;;;5032057;28;20083;-43
2023/10/25 10:09:05;;;;;;;3.72;3.20;;;11.60;99.90;;;;;;5043977;28;20021;-43
2023/10/25 10:11:38;;;;;;;3.40;3.10;;;11.60;99.90;;;;;;5033275;28;20040;-43
2023/10/25 10:14:28;;;;;;;7.18;3.28;;;11.60;99.90;;;;;;5042343;28;20033;-43
2023/10/25 10:16:59;;;;;;;4.82;3.47;;;11.60;99.90;;;;;;5035169;28;20025;-43
2023/10/25 10:19:24;;;;;;;4.75;3.30;;;11.60;99.90;;;;;;5039547;28;20207;-43
2023/10/25 10:22:04;;;;;;;4.38;3.53;;;11.60;99.90;;;;;;5042361;28;20134;-43
2023/10/25 10:24:40;;;;;;;5.55;3.78;;;11.60;99.90;;;;;;5042118;28;20017;-43
2023/10/25 10:27:05;;;;;;;5.55;3.60;;;11.60;99.90;;;;;;5030451;28;20033;-43
2023/10/25 10:29:31;;;;;;;4.63;3.63;;;11.60;99.90;;;;;;5041740;28;20032;-44
2023/10/25 10:32:04;;;;;;;7.35;4.78;;;11.60;99.90;;;;;;5042548;28;20644;-44
2023/10/25 10:35:09;;;;;;;5.93;4.38;;;11.60;99.90;;;;;;5040626;28;20053;-44
2023/10/25 10:37:54;;;;;;;5.43;4.00;;;11.70;99.90;;;;;;5033535;28;20114;-43
2023/10/25 10:40:20;;;;;;;7.03;4.00;;;11.60;99.90;;;;;;5040818;28;20112;-43
2023/10/25 10:42:46;;;;;;;4.43;4.00;;;11.60;99.90;;;;;;5041794;28;20032;-42
2023/10/25 10:45:19;;;;;;;8.30;4.43;;;11.70;99.90;;;;;;5041343;28;20025;-43
2023/10/25 10:48:09;;;;;;;7.10;4.55;;;11.70;99.90;;;;;;5032527;28;20035;-43
2023/10/25 10:50:39;;;;;;;6.22;3.60;;;11.70;99.90;;;;;;5042680;28;20032;-44
2023/10/25 10:53:04;;;;;;;5.68;3.97;;;11.70;99.90;;;;;;5041734;28;20579;-43
2023/10/25 10:55:30;;;;;;;8.45;3.75;;;11.70;99.90;;;;;;5041877;28;20725;-43
2023/10/25 10:57:55;;;;;;;6.38;4.22;;;11.60;99.90;;;;;;5043073;28;20024;-44
2023/10/25 11:00:21;;;;;;;7.03;4.70;;;11.70;99.90;;;;;;5041508;28;20113;-44
2023/10/25 11:02:49;;;;;;;5.55;4.40;;;11.70;99.90;;;;;;5041803;28;20532;-44
2023/10/25 11:05:19;;;;;;;7.38;4.53;;;11.60;99.90;;;;;;5041819;28;20029;-44
2023/10/25 11:07:49;;;;;;;4.78;3.50;;;11.70;99.90;;;;;;5041704;28;20462;-43
2023/10/25 11:10:15;;;;;;;6.20;3.75;;;11.70;99.90;;;;;;5041814;28;20017;-43
2023/10/25 11:12:42;;;;;;;7.35;4.32;;;11.70;99.90;;;;;;5041681;28;20041;-43
2023/10/25 11:15:10;;;;;;;6.10;3.80;;;11.70;99.90;;;;;;5042078;28;20103;-44
2023/10/25 11:17:37;;;;;;;6.05;3.80;;;11.70;99.90;;;;;;5041697;28;20029;-44
2023/10/25 11:20:03;;;;;;;6.10;3.58;;;11.70;99.90;;;;;;5041838;28;20025;-45
2023/10/25 11:22:32;;;;;;;4.78;3.47;;;11.70;99.90;;;;;;5041206;28;20059;-44
2023/10/25 11:24:58;;;;;;;5.20;3.45;;;11.70;99.90;;;;;;5042564;28;20047;-44
2023/10/25 11:27:32;;;;;;;6.32;4.25;;;11.80;99.90;;;;;;5041226;28;20931;-44
2023/10/25 11:30:01;;;;;;;5.80;4.25;;;11.80;99.90;;;;;;5041746;28;20025;-44
2023/10/25 11:32:30;;;;;;;5.50;3.40;;;11.90;99.90;;;;;;5041804;28;20025;-44
2023/10/25 11:34:59;;;;;;;6.40;3.75;;;11.90;99.90;;;;;;5042143;28;20488;-42
2023/10/25 11:37:48;;;;;;;5.10;3.45;;;11.90;99.90;;;;;;5040216;28;20017;-43
2023/10/25 11:40:14;;;;;;;7.63;3.60;;;11.90;99.90;;;;;;5041446;28;20132;-44
2023/10/25 11:42:44;;;;;;;5.82;3.38;;;12.00;99.90;;;;;;5042125;28;20031;-44
2023/10/25 11:45:10;;;;;;;5.70;4.00;;;11.90;99.90;;;;;;5040408;28;20025;-43
2023/10/25 11:47:38;;;;;;;6.82;3.30;;;12.00;99.90;;;;;;5040893;28;20052;-43
2023/10/25 11:50:10;;;;;;;5.40;3.88;;;12.00;99.90;;;;;;5040786;28;20828;-44
2023/10/25 11:52:36;;;;;;;5.43;3.22;;;12.00;99.90;;;;;;5040956;28;20025;-43
2023/10/25 11:55:04;;;;;;;5.13;3.47;;;12.00;99.90;;;;;;5040553;28;20029;-44
2023/10/25 11:57:32;;;;;;;5.43;3.53;;;11.90;99.90;;;;;;5041452;28;20059;-43
2023/10/25 11:59:58;;;;;;;4.65;3.30;;;11.90;99.90;;;;;;5041207;28;20053;-44
2023/10/25 12:02:25;;;;;;;6.25;3.55;;;11.90;99.90;;;;;;5040703;28;20144;-44
2023/10/25 12:04:55;;;;;;;5.03;3.50;;;11.90;99.90;;;;;;5040348;28;20025;-44
2023/10/25 12:07:22;;;;;;;8.30;3.33;;;11.90;99.90;;;;;;5039946;28;20033;-44
2023/10/25 12:09:54;;;;;;;3.55;3.15;;;11.90;99.90;;;;;;5041375;28;20040;-44
2023/10/25 12:12:20;;;;;;;5.63;4.00;;;11.90;99.90;;;;;;5040074;28;20025;-43
2023/10/25 12:14:46;;;;;;;5.93;2.95;;;11.90;99.90;;;;;;5041023;28;20039;-43
2023/10/25 12:17:12;;;;;;;4.93;3.75;;;11.90;99.90;;;;;;5041362;28;20036;-43
2023/10/25 12:19:41;;;;;;;6.30;3.28;;;11.90;99.90;;;;;;5040070;28;20034;-44
2023/10/25 12:22:10;;;;;;;3.33;2.60;;;11.90;99.90;;;;;;5020515;28;20048;-43
2023/10/25 12:24:36;;;;;;;4.60;3.33;;;11.90;99.90;;;;;;5035216;28;20468;-43
2023/10/25 12:27:06;;;;;;;8.23;3.67;;;11.90;99.90;;;;;;5039938;28;20056;-43
2023/10/25 12:29:32;;;;;;;5.22;3.67;;;11.90;99.90;;;;;;5041336;28;20055;-43
2023/10/25 12:31:58;;;;;;;5.03;3.10;;;11.90;99.90;;;;;;5041299;28;20040;-44
2023/10/25 12:34:23;;;;;;;3.03;2.72;;;11.90;99.90;;;;;;5039358;28;20044;-43
2023/10/25 12:36:50;;;;;;;3.88;2.80;;;11.90;99.90;;;;;;5040944;28;20043;-43
2023/10/25 12:39:21;;;;;;;4.07;2.92;;;11.90;99.90;;;;;;5040059;28;20032;-43
2023/10/25 12:41:47;;;;;;;5.00;3.92;;;11.90;99.90;;;;;;5039856;28;20037;-43
2023/10/25 12:44:13;;;;;;;3.95;3.30;;;11.90;99.90;;;;;;5039915;28;20074;-43
2023/10/25 12:46:39;;;;;;;5.80;3.53;;;11.90;99.90;;;;;;5040316;28;20040;-43
2023/10/25 12:49:05;;;;;;;4.93;3.58;;;11.90;99.90;;;;;;5038814;28;20574;-42
2023/10/25 12:51:31;;;;;;;4.45;3.42;;;11.90;99.90;;;;;;5039455;28;20052;-43